American Freedom — WDC3284 — position and weather

sailwx.info

Track history (hours):
 
Tides and Currents Weather Stations Pressure Air Temp Water Temp Dewpoint Dewpoint Depression Visibility Wind Speed Wind Dir Waves Ship Positions

American Freedom

Owner: LeBeouf Bros. Towing, L.L.C., Houma, LA. More information available from US FCC via Universal Licensing System and Coast Guard Vessel Documentation Center.

Last reported at 2018-Feb-22 01:38 UTC. Time now 2018-Feb-22 07:23 UTC.
Position N 29°33' W 090°55'.

Length 24 m.

Type: Tug. MMSI: 367005260.

Date/timePositionNaut miles runAvg speedWind from/ knotsBaromVisibWave heightAir tempDewpointWater temp
2018-Feb-22 01:38N 29°33' W 090°55'1 8.3
2018-Feb-22 01:30N 29°33' W 090°53'4 7.5
2018-Feb-22 01:01N 29°32' W 090°49'4 7.5
2018-Feb-22 00:31N 29°33' W 090°45'2 4.9
2018-Feb-22 00:00N 29°35' W 090°43'2 4.4
2018-Feb-21 23:31N 29°37' W 090°42'0 1.0
2018-Feb-21 23:01N 29°36' W 090°41'0 0.0
2018-Feb-21 22:30N 29°36' W 090°41'0 0.0
2018-Feb-21 22:01N 29°36' W 090°41'0 0.0
2018-Feb-21 21:31N 29°36' W 090°41'2 4.0
2018-Feb-21 21:01N 29°36' W 090°39'3 6.0
2018-Feb-21 20:31N 29°35' W 090°36'0 0.3
2018-Feb-21 20:00N 29°35' W 090°36'0 0.1
2018-Feb-21 19:30N 29°35' W 090°36'0 0.2
2018-Feb-21 17:59N 29°35' W 090°36'0 0.5
2018-Feb-21 17:30N 29°34' W 090°36'0 0.0
2018-Feb-21 17:00N 29°34' W 090°36'0 0.6
2018-Feb-21 16:30N 29°35' W 090°36'0 0.2
2018-Feb-21 16:00N 29°35' W 090°36'1 1.1
2018-Feb-21 15:30N 29°35' W 090°36'0 0.5
2018-Feb-21 15:00N 29°35' W 090°36'0 0.3
2018-Feb-21 14:30N 29°35' W 090°36'1 1.0
2018-Feb-21 14:00N 29°35' W 090°36'0 0.5
2018-Feb-21 13:29N 29°34' W 090°36'0 0.0
2018-Feb-21 13:01N 29°34' W 090°36'0 0.0
2018-Feb-21 12:30N 29°34' W 090°36'0 0.0
2018-Feb-21 12:01N 29°34' W 090°36'0 0.0
2018-Feb-21 11:30N 29°34' W 090°36'0 0.0
2018-Feb-21 11:01N 29°34' W 090°36'0 0.0
2018-Feb-21 10:30N 29°34' W 090°36'0 0.0
2018-Feb-21 09:57N 29°34' W 090°36'0 0.0
2018-Feb-21 09:30N 29°34' W 090°36'0 0.0
2018-Feb-21 09:01N 29°34' W 090°36'0 0.0
2018-Feb-21 08:31N 29°34' W 090°36'0 0.0
2018-Feb-21 08:00N 29°34' W 090°36'0 0.0
2018-Feb-21 07:31N 29°34' W 090°36'0 0.0
2018-Feb-21 07:01N 29°34' W 090°36'0 0.0
2018-Feb-21 06:31N 29°34' W 090°36'0 0.0
2018-Feb-21 06:00N 29°34' W 090°36'0 0.0
2018-Feb-21 05:30N 29°34' W 090°36'0 0.0
2018-Feb-21 05:01N 29°34' W 090°36'0 0.0
2018-Feb-21 04:31N 29°34' W 090°36'0 0.0
2018-Feb-21 04:00N 29°34' W 090°36'0 0.0
2018-Feb-21 03:31N 29°34' W 090°36'0 0.0
2018-Feb-21 03:00N 29°34' W 090°36'0 0.0
2018-Feb-21 02:31N 29°34' W 090°36'0 0.0
2018-Feb-21 01:59N 29°34' W 090°36'0 0.0
2018-Feb-21 01:30N 29°34' W 090°36'0 0.0
2018-Feb-21 01:00N 29°34' W 090°36'0 0.0
2018-Feb-21 00:31N 29°34' W 090°36'0 0.0
2018-Feb-21 00:01N 29°34' W 090°36'0 0.0
2018-Feb-20 23:30N 29°34' W 090°36'0 0.0
2018-Feb-20 23:00N 29°34' W 090°36'0 0.0
2018-Feb-20 22:30N 29°34' W 090°36'0 0.0
2018-Feb-20 21:55N 29°34' W 090°36'0 0.0
2018-Feb-20 21:31N 29°34' W 090°36'0 0.0
2018-Feb-20 20:58N 29°34' W 090°36'0 0.0
2018-Feb-20 20:31N 29°34' W 090°36'0 0.0
2018-Feb-20 20:00N 29°34' W 090°36'0 0.0
2018-Feb-20 19:30N 29°34' W 090°36'0 0.0
2018-Feb-20 19:01N 29°34' W 090°36'0 0.0
2018-Feb-20 18:31N 29°34' W 090°36'0 0.0
2018-Feb-20 18:00N 29°34' W 090°36'0 0.0
2018-Feb-20 17:30N 29°34' W 090°36'0 0.0
2018-Feb-20 17:00N 29°34' W 090°36'0 0.0
2018-Feb-20 16:30N 29°34' W 090°36'0 0.0
2018-Feb-20 15:59N 29°34' W 090°36'0 0.0
2018-Feb-20 15:30N 29°34' W 090°36'0 0.0
2018-Feb-20 15:00N 29°34' W 090°36'0 0.0
2018-Feb-20 14:30N 29°34' W 090°36'0 0.0
2018-Feb-20 13:49N 29°34' W 090°36'0 0.0
2018-Feb-20 13:30N 29°34' W 090°36'0 0.0
2018-Feb-20 13:01N 29°34' W 090°36'0 0.0
2018-Feb-20 12:31N 29°34' W 090°36'0 0.0
2018-Feb-20 12:01N 29°34' W 090°36'0 0.0
2018-Feb-20 11:30N 29°34' W 090°36'0 0.0
2018-Feb-20 11:01N 29°34' W 090°36'0 0.0
2018-Feb-20 10:30N 29°34' W 090°36'0 0.0
2018-Feb-20 10:00N 29°34' W 090°36'0 0.0
2018-Feb-20 09:31N 29°34' W 090°36'0 0.0
2018-Feb-20 08:57N 29°34' W 090°36'0 0.0
2018-Feb-20 08:31N 29°34' W 090°36'0 0.0
2018-Feb-20 07:59N 29°34' W 090°36'0 0.0
2018-Feb-20 07:28N 29°34' W 090°36'0 0.0
2018-Feb-20 07:01N 29°34' W 090°36'0 0.0
2018-Feb-20 06:28N 29°34' W 090°36'0 0.0
2018-Feb-20 05:58N 29°34' W 090°36'0 0.0
2018-Feb-20 05:29N 29°34' W 090°36'0 0.0
2018-Feb-20 05:00N 29°34' W 090°36'0 0.0
2018-Feb-20 04:30N 29°34' W 090°36'0 0.0
2018-Feb-20 04:01N 29°34' W 090°36'0 0.0
2018-Feb-20 03:26N 29°34' W 090°36'0 0.0
2018-Feb-20 02:59N 29°34' W 090°36'0 0.0
2018-Feb-20 02:26N 29°34' W 090°36'0 0.0
2018-Feb-20 02:01N 29°34' W 090°36'0 0.0
2018-Feb-20 01:30N 29°34' W 090°36'0 0.0
2018-Feb-20 00:59N 29°34' W 090°36'0 0.0
2018-Feb-20 00:31N 29°34' W 090°36'0 0.0
2018-Feb-20 00:01N 29°34' W 090°36'0 0.0
2018-Feb-19 23:31N 29°34' W 090°36'0 0.0
2018-Feb-19 23:01N 29°34' W 090°36'0 0.0
2018-Feb-19 22:30N 29°34' W 090°36'0 0.0
2018-Feb-19 22:00N 29°34' W 090°36'0 0.0
2018-Feb-19 21:31N 29°34' W 090°36'0 0.0
2018-Feb-19 21:00N 29°34' W 090°36'0 0.0
2018-Feb-19 20:31N 29°34' W 090°36'0 0.0
2018-Feb-19 20:01N 29°34' W 090°36'0 0.0
2018-Feb-19 19:31N 29°34' W 090°36'0 0.0
2018-Feb-19 19:01N 29°34' W 090°36'0 0.0
2018-Feb-19 18:29N 29°34' W 090°36'0 0.0
2018-Feb-19 18:01N 29°34' W 090°36'0 0.0
2018-Feb-19 17:29N 29°34' W 090°36'0 0.0
2018-Feb-19 17:00N 29°34' W 090°36'0 0.0
2018-Feb-19 16:31N 29°34' W 090°36'0 0.0
2018-Feb-19 15:57N 29°34' W 090°36'0 0.0
2018-Feb-19 15:31N 29°34' W 090°36'0 0.0
2018-Feb-19 15:00N 29°34' W 090°36'0 0.0
2018-Feb-19 14:31N 29°34' W 090°36'0 0.0
2018-Feb-19 14:00N 29°34' W 090°36'0 0.0
2018-Feb-19 13:31N 29°34' W 090°36'0 0.0
2018-Feb-19 13:01N 29°34' W 090°36'0 0.0
2018-Feb-19 12:31N 29°34' W 090°36'0 0.0
2018-Feb-19 12:00N 29°34' W 090°36'0 0.0
2018-Feb-19 11:30N 29°34' W 090°36'0 0.0
2018-Feb-19 11:01N 29°34' W 090°36'0 0.0
2018-Feb-19 10:30N 29°34' W 090°36'0 0.0
2018-Feb-19 09:58N 29°34' W 090°36'0 0.0
2018-Feb-19 09:30N 29°34' W 090°36'0 0.0
2018-Feb-19 08:59N 29°34' W 090°36'0 0.0
2018-Feb-19 08:29N 29°34' W 090°36'0 0.0
2018-Feb-19 08:01N 29°34' W 090°36'0 0.0
2018-Feb-19 07:23N 29°34' W 090°36'0 0.0
2018-Feb-19 07:00N 29°34' W 090°36'0 0.0
2018-Feb-19 06:30N 29°34' W 090°36'0 0.0
2018-Feb-19 06:00N 29°34' W 090°36'0 0.0
2018-Feb-19 05:30N 29°34' W 090°36'0 0.0
2018-Feb-19 05:01N 29°34' W 090°36'0 0.0
2018-Feb-19 04:30N 29°34' W 090°36'0 0.0
2018-Feb-19 04:00N 29°34' W 090°36'0 0.0
2018-Feb-19 03:30N 29°34' W 090°36'0 0.0
2018-Feb-19 03:01N 29°34' W 090°36'0 0.0
2018-Feb-19 02:29N 29°34' W 090°36'0 0.0
2018-Feb-19 02:00N 29°34' W 090°36'0 0.0
2018-Feb-19 01:31N 29°34' W 090°36'0 0.0
2018-Feb-19 00:30N 29°34' W 090°36'0 0.0
2018-Feb-19 00:00N 29°34' W 090°36'0 0.0
2018-Feb-18 23:31N 29°34' W 090°36'0 0.0
2018-Feb-18 23:01N 29°34' W 090°36'0 0.0
2018-Feb-18 22:31N 29°34' W 090°36'0 0.0
2018-Feb-18 22:00N 29°34' W 090°36'0 0.0
2018-Feb-18 21:30N 29°34' W 090°36'0 0.0
2018-Feb-18 21:00N 29°34' W 090°36'0 0.0
2018-Feb-18 20:30N 29°34' W 090°36'0 0.0
2018-Feb-18 20:00N 29°34' W 090°36'0 0.0
2018-Feb-18 19:31N 29°34' W 090°36'0 0.0
2018-Feb-18 19:01N 29°34' W 090°36'0 0.0
2018-Feb-18 18:30N 29°34' W 090°36'0 0.0
2018-Feb-18 18:00N 29°34' W 090°36'0 0.0
2018-Feb-18 17:31N 29°34' W 090°36'0 0.0
2018-Feb-18 17:01N 29°34' W 090°36'0 0.0
2018-Feb-18 16:31N 29°34' W 090°36'0 0.0
2018-Feb-18 16:00N 29°34' W 090°36'0 0.0
2018-Feb-18 15:31N 29°34' W 090°36'0 0.0
2018-Feb-18 15:00N 29°34' W 090°36'0 0.0
2018-Feb-18 14:30N 29°34' W 090°36'0 0.0
2018-Feb-18 13:59N 29°34' W 090°36'0 0.0
2018-Feb-18 13:30N 29°34' W 090°36'0 0.0
2018-Feb-18 12:58N 29°34' W 090°36'0 0.0
2018-Feb-18 12:31N 29°34' W 090°36'0 0.0
2018-Feb-18 12:01N 29°34' W 090°36'0 0.0
2018-Feb-18 11:28N 29°34' W 090°36'0 0.0
2018-Feb-18 11:00N 29°34' W 090°36'0 0.0
2018-Feb-18 10:28N 29°34' W 090°36'0 0.0
2018-Feb-18 10:00N 29°34' W 090°36'0 0.0
2018-Feb-18 09:27N 29°34' W 090°36'0 0.0
2018-Feb-18 09:00N 29°34' W 090°36'0 0.0
2018-Feb-18 08:30N 29°34' W 090°36'0 0.0
2018-Feb-18 08:00N 29°34' W 090°36'0 0.0
2018-Feb-18 07:27N 29°34' W 090°36'0 0.0
2018-Feb-18 07:01N 29°34' W 090°36'0 0.0
2018-Feb-18 06:30N 29°34' W 090°36'0 0.0
2018-Feb-18 06:00N 29°34' W 090°36'0 0.0
2018-Feb-18 05:31N 29°34' W 090°36'0 0.0
2018-Feb-18 05:00N 29°34' W 090°36'0 0.0
2018-Feb-18 04:30N 29°34' W 090°36'0 0.0
2018-Feb-18 04:01N 29°34' W 090°36'0 0.0
2018-Feb-18 03:31N 29°34' W 090°36'0 0.0
2018-Feb-18 02:58N 29°34' W 090°36'0 0.0
2018-Feb-18 02:31N 29°34' W 090°36'0 0.0
2018-Feb-18 02:00N 29°34' W 090°36'0 0.0
2018-Feb-18 01:30N 29°34' W 090°36'0 0.0
2018-Feb-18 01:01N 29°34' W 090°36'0 0.0
2018-Feb-18 00:30N 29°34' W 090°36'0 0.0
2018-Feb-18 00:01N 29°34' W 090°36'0 0.0
2018-Feb-17 23:31N 29°34' W 090°36'0 0.0
2018-Feb-17 23:00N 29°34' W 090°36'0 0.0
2018-Feb-17 22:29N 29°34' W 090°36'0 0.0
2018-Feb-17 22:00N 29°34' W 090°36'0 0.0
2018-Feb-17 21:30N 29°34' W 090°36'0 0.0
2018-Feb-17 21:01N 29°34' W 090°36'0 0.0
2018-Feb-17 20:29N 29°34' W 090°36'0 0.0
2018-Feb-17 20:00N 29°34' W 090°36'0 0.0
2018-Feb-17 19:30N 29°34' W 090°36'0 0.0
2018-Feb-17 19:00N 29°34' W 090°36'0 0.0
2018-Feb-17 18:28N 29°34' W 090°36'0 0.0
2018-Feb-17 18:00N 29°34' W 090°36'0 0.0
2018-Feb-17 17:30N 29°34' W 090°36'0 0.0
2018-Feb-17 17:01N 29°34' W 090°36'0 0.0
2018-Feb-17 16:31N 29°34' W 090°36'0 0.0
2018-Feb-17 16:01N 29°34' W 090°36'0 0.0
2018-Feb-17 15:30N 29°34' W 090°36'0 0.0
2018-Feb-17 14:59N 29°34' W 090°36'0 0.0
2018-Feb-17 14:30N 29°34' W 090°36'0 0.0
2018-Feb-17 13:53N 29°34' W 090°36'0 0.0
2018-Feb-17 13:31N 29°34' W 090°36'0 0.0
2018-Feb-17 13:01N 29°34' W 090°36'0 0.0
2018-Feb-17 12:30N 29°34' W 090°36'0 0.0
2018-Feb-17 12:01N 29°34' W 090°36'0 0.0
2018-Feb-17 11:30N 29°34' W 090°36'0 0.0
2018-Feb-17 10:57N 29°34' W 090°36'0 0.0
2018-Feb-17 10:30N 29°34' W 090°36'0 0.0
2018-Feb-17 10:01N 29°34' W 090°36'0 0.0
2018-Feb-17 09:30N 29°34' W 090°36'0 0.0
2018-Feb-17 09:00N 29°34' W 090°36'0 0.0
2018-Feb-17 08:31N 29°34' W 090°36'0 0.0
2018-Feb-17 08:01N 29°34' W 090°36'0 0.0
2018-Feb-17 07:31N 29°34' W 090°36'0 0.0
2018-Feb-17 07:01N 29°34' W 090°36'0 0.0
2018-Feb-17 06:31N 29°34' W 090°36'0 0.0
2018-Feb-17 06:00N 29°34' W 090°36'0 0.0
2018-Feb-17 05:31N 29°34' W 090°36'0 0.0
2018-Feb-17 05:01N 29°34' W 090°36'0 0.0
2018-Feb-17 04:30N 29°34' W 090°36'0 0.0
2018-Feb-17 04:00N 29°34' W 090°36'0 0.0
2018-Feb-17 03:31N 29°34' W 090°36'0 0.0
2018-Feb-17 03:01N 29°34' W 090°36'0 0.0
2018-Feb-17 02:31N 29°34' W 090°36'0 0.0
2018-Feb-17 01:59N 29°34' W 090°36'0 0.0
2018-Feb-17 01:31N 29°34' W 090°36'0 0.0
2018-Feb-17 01:00N 29°34' W 090°36'0 0.0
2018-Feb-17 00:30N 29°34' W 090°36'0 0.0
2018-Feb-16 23:59N 29°34' W 090°36'0 0.0
2018-Feb-16 23:31N 29°34' W 090°36'0 0.0
2018-Feb-16 23:00N 29°34' W 090°36'0 0.0
2018-Feb-16 22:31N 29°34' W 090°36'0 0.0
2018-Feb-16 22:00N 29°34' W 090°36'0 0.0
2018-Feb-16 21:30N 29°34' W 090°36'0 0.0
2018-Feb-16 21:00N 29°34' W 090°36'0 0.0
2018-Feb-16 20:28N 29°34' W 090°36'0 0.7
2018-Feb-16 20:00N 29°35' W 090°35'0 0.6
2018-Feb-16 19:30N 29°34' W 090°36'0 0.0
2018-Feb-16 19:00N 29°34' W 090°36'0 0.0
2018-Feb-16 18:30N 29°34' W 090°36'0 0.0
2018-Feb-16 18:00N 29°34' W 090°36'0 0.0
2018-Feb-16 17:30N 29°34' W 090°36'0 0.0
2018-Feb-16 17:00N 29°34' W 090°36'0 0.0
2018-Feb-16 16:31N 29°34' W 090°36'0 0.0
2018-Feb-16 16:00N 29°34' W 090°36'0 0.0
2018-Feb-16 15:30N 29°34' W 090°36'0 0.0
2018-Feb-16 15:00N 29°34' W 090°36'0 0.0
2018-Feb-16 14:29N 29°34' W 090°36'0 0.0
2018-Feb-16 13:59N 29°34' W 090°36'0 0.0
2018-Feb-16 13:31N 29°34' W 090°36'0 0.0
2018-Feb-16 13:01N 29°34' W 090°36'0 0.0
2018-Feb-16 12:31N 29°34' W 090°36'0 0.0
2018-Feb-16 12:01N 29°34' W 090°36'0 0.0
2018-Feb-16 11:30N 29°34' W 090°36'0 0.0
2018-Feb-16 11:01N 29°34' W 090°36'0 0.0
2018-Feb-16 10:30N 29°34' W 090°36'0 0.0
2018-Feb-16 10:00N 29°34' W 090°36'0 0.0
2018-Feb-16 09:30N 29°34' W 090°36'0 0.0
2018-Feb-16 09:01N 29°34' W 090°36'0 0.0
2018-Feb-16 08:28N 29°34' W 090°36'0 0.0
2018-Feb-16 08:00N 29°34' W 090°36'0 0.0
2018-Feb-16 07:30N 29°34' W 090°36'0 0.0
2018-Feb-16 07:01N 29°34' W 090°36'0 0.0
2018-Feb-16 06:28N 29°34' W 090°36'0 0.0
2018-Feb-16 06:00N 29°34' W 090°36'0 0.0
2018-Feb-16 05:29N 29°34' W 090°36'0 0.0
2018-Feb-16 04:59N 29°34' W 090°36'0 0.0
2018-Feb-16 04:24N 29°34' W 090°36'0 0.0
2018-Feb-16 04:01N 29°34' W 090°36'0 0.0
2018-Feb-16 03:30N 29°34' W 090°36'0 0.0
2018-Feb-16 03:01N 29°34' W 090°36'0 0.0
2018-Feb-16 02:31N 29°34' W 090°36'0 0.0
2018-Feb-16 02:00N 29°34' W 090°36'0 0.0
2018-Feb-16 01:30N 29°34' W 090°36'0 0.0
2018-Feb-16 01:00N 29°34' W 090°36'0 0.0
2018-Feb-16 00:30N 29°34' W 090°36'0 0.0
2018-Feb-16 00:01N 29°34' W 090°36'0 0.0
2018-Feb-15 23:30N 29°34' W 090°36'0 0.0
2018-Feb-15 22:58N 29°34' W 090°36'0 0.0
2018-Feb-15 22:31N 29°34' W 090°36'0 0.0
2018-Feb-15 21:59N 29°34' W 090°36'0 0.0
2018-Feb-15 21:31N 29°34' W 090°36'0 0.0
2018-Feb-15 21:01N 29°34' W 090°36'0 0.0
2018-Feb-15 20:31N 29°34' W 090°36'0 0.0
2018-Feb-15 19:58N 29°34' W 090°36'0 0.0
2018-Feb-15 19:30N 29°34' W 090°36'0 0.0
2018-Feb-15 19:01N 29°34' W 090°36'0 0.0
2018-Feb-15 18:31N 29°34' W 090°36'0 0.0
2018-Feb-15 18:01N 29°34' W 090°36'0 0.0
2018-Feb-15 17:31N 29°34' W 090°36'0 0.0
2018-Feb-15 17:00N 29°34' W 090°36'0 0.0
2018-Feb-15 16:30N 29°34' W 090°36'0 0.0
2018-Feb-15 16:00N 29°34' W 090°36'0 0.0
2018-Feb-15 15:29N 29°34' W 090°36'0 0.0
2018-Feb-15 15:00N 29°34' W 090°36'0 0.0
2018-Feb-15 14:30N 29°34' W 090°36'0 0.0
2018-Feb-15 13:58N 29°34' W 090°36'0 0.0
2018-Feb-15 13:30N 29°34' W 090°36'0 0.0
2018-Feb-15 12:58N 29°34' W 090°36'0 0.0
2018-Feb-15 12:30N 29°34' W 090°36'0 0.0
2018-Feb-15 12:00N 29°34' W 090°36'0 0.0
2018-Feb-15 11:30N 29°34' W 090°36'0 0.0
2018-Feb-15 11:00N 29°34' W 090°36'0 0.0
2018-Feb-15 10:30N 29°34' W 090°36'0 0.0
2018-Feb-15 09:59N 29°34' W 090°36'0 0.0
2018-Feb-15 09:30N 29°34' W 090°36'0 0.0
2018-Feb-15 09:00N 29°34' W 090°36'0 0.0
2018-Feb-15 08:30N 29°34' W 090°36'0 0.0
2018-Feb-15 08:00N 29°34' W 090°36'0 0.0
2018-Feb-15 07:30N 29°34' W 090°36'0 0.0
2018-Feb-15 07:00N 29°34' W 090°36'0 0.0
2018-Feb-15 06:30N 29°34' W 090°36'0 0.0
2018-Feb-15 06:00N 29°34' W 090°36'0 0.0
2018-Feb-15 05:30N 29°34' W 090°36'0 0.0
2018-Feb-15 05:00N 29°34' W 090°36'0 0.0
2018-Feb-15 04:30N 29°34' W 090°36'0 0.0
2018-Feb-15 04:00N 29°34' W 090°36'0 0.0
2018-Feb-15 03:30N 29°34' W 090°36'0 0.0
2018-Feb-15 03:00N 29°34' W 090°36'0 0.0
2018-Feb-15 02:30N 29°34' W 090°36'0 0.0
2018-Feb-15 02:00N 29°34' W 090°36'0 0.0
2018-Feb-15 01:27N 29°34' W 090°36'0 0.0
2018-Feb-15 01:00N 29°34' W 090°36'0 0.0
2018-Feb-15 00:23N 29°34' W 090°36'0 0.0
2018-Feb-15 00:00N 29°34' W 090°36'0 0.0
2018-Feb-14 23:30N 29°34' W 090°36'0 0.0
2018-Feb-14 23:00N 29°34' W 090°36'0 0.0
2018-Feb-14 22:30N 29°34' W 090°36'0 0.0
2018-Feb-14 22:00N 29°34' W 090°36'0 0.0
2018-Feb-14 21:30N 29°34' W 090°36'0 0.0
2018-Feb-14 20:59N 29°34' W 090°36'0 0.0
2018-Feb-14 20:30N 29°34' W 090°36'0 0.0
2018-Feb-14 19:59N 29°34' W 090°36'0 0.0
2018-Feb-14 19:29N 29°34' W 090°36'0 0.0
2018-Feb-14 18:59N 29°34' W 090°36'0 0.0
2018-Feb-14 18:30N 29°34' W 090°36'0 0.0
2018-Feb-14 18:00N 29°34' W 090°36'0 0.0
2018-Feb-14 17:30N 29°34' W 090°36'0 0.0
2018-Feb-14 17:00N 29°34' W 090°36'0 0.0
2018-Feb-14 16:30N 29°34' W 090°36'0 0.0
2018-Feb-14 15:59N 29°34' W 090°36'0 0.0
2018-Feb-14 15:30N 29°34' W 090°36'0 0.0
2018-Feb-14 15:00N 29°34' W 090°36'0 0.0
2018-Feb-14 13:31N 29°34' W 090°36'0 0.0
2018-Feb-14 13:24N 29°34' W 090°36'0 0.0
2018-Feb-14 13:00N 29°34' W 090°36'0 0.0
2018-Feb-14 12:30N 29°34' W 090°36'0 0.0
2018-Feb-14 12:00N 29°34' W 090°36'0 0.0
2018-Feb-14 11:30N 29°34' W 090°36'0 0.0
2018-Feb-14 11:00N 29°34' W 090°36'0 0.0
2018-Feb-14 10:30N 29°34' W 090°36'0 0.0
2018-Feb-14 09:58N 29°34' W 090°36'0 0.0
2018-Feb-14 09:29N 29°34' W 090°36'0 0.0
2018-Feb-14 08:54N 29°34' W 090°36'0 0.0
2018-Feb-14 08:30N 29°34' W 090°36'0 0.0
2018-Feb-14 07:59N 29°34' W 090°36'0 0.0
2018-Feb-14 07:30N 29°34' W 090°36'0 0.0
2018-Feb-14 07:00N 29°34' W 090°36'0 0.0
2018-Feb-14 06:30N 29°34' W 090°36'0 0.0
2018-Feb-14 05:54N 29°34' W 090°36'0 0.0
2018-Feb-14 05:30N 29°34' W 090°36'0 0.0
2018-Feb-14 05:00N 29°34' W 090°36'0 0.0
2018-Feb-14 04:29N 29°34' W 090°36'0 0.0
2018-Feb-14 03:57N 29°34' W 090°36'0 0.0
2018-Feb-14 03:30N 29°34' W 090°36'0 0.0
2018-Feb-14 03:00N 29°34' W 090°36'0 0.0
2018-Feb-14 02:30N 29°34' W 090°36'0 0.0
2018-Feb-14 01:59N 29°34' W 090°36'0 0.0
2018-Feb-14 01:30N 29°34' W 090°36'0 0.0
2018-Feb-14 01:00N 29°34' W 090°36'0 0.0
2018-Feb-14 00:25N 29°34' W 090°36'0 0.0
2018-Feb-14 00:00N 29°34' W 090°36'0 0.0
2018-Feb-13 23:30N 29°34' W 090°36'0 0.0
2018-Feb-13 23:00N 29°34' W 090°36'0 0.0
2018-Feb-13 22:30N 29°34' W 090°36'0 0.0
2018-Feb-13 22:00N 29°34' W 090°36'0 0.0
2018-Feb-13 21:30N 29°34' W 090°36'0 0.0
2018-Feb-13 21:00N 29°34' W 090°36'0 0.0
2018-Feb-13 20:30N 29°34' W 090°36'0 0.0
2018-Feb-13 20:00N 29°34' W 090°36'0 0.0
2018-Feb-13 19:29N 29°34' W 090°36'0 0.0
2018-Feb-13 19:00N 29°34' W 090°36'0 0.0
2018-Feb-13 18:30N 29°34' W 090°36'0 0.0
2018-Feb-13 17:58N 29°34' W 090°36'0 0.0
2018-Feb-13 17:30N 29°34' W 090°36'0 0.0
2018-Feb-13 17:00N 29°34' W 090°36'0 0.0
2018-Feb-13 16:30N 29°34' W 090°36'0 0.0
2018-Feb-13 16:00N 29°34' W 090°36'0 0.0
2018-Feb-13 15:29N 29°34' W 090°36'0 0.0
2018-Feb-13 15:00N 29°34' W 090°36'0 0.0
2018-Feb-13 14:29N 29°34' W 090°36'0 0.0
2018-Feb-13 13:39N 29°34' W 090°36'0 0.0
2018-Feb-13 13:30N 29°34' W 090°36'0 0.0
2018-Feb-13 13:00N 29°34' W 090°36'0 0.0
2018-Feb-13 12:30N 29°34' W 090°36'0 0.0
2018-Feb-13 12:00N 29°34' W 090°36'0 0.0
2018-Feb-13 11:29N 29°34' W 090°36'0 0.0
2018-Feb-13 10:55N 29°34' W 090°36'0 0.0
2018-Feb-13 10:30N 29°34' W 090°36'0 0.0
2018-Feb-13 10:00N 29°34' W 090°36'0 0.0
2018-Feb-13 09:30N 29°34' W 090°36'0 0.0
2018-Feb-13 08:58N 29°34' W 090°36'0 0.0
2018-Feb-13 08:27N 29°34' W 090°36'0 0.0
2018-Feb-13 07:55N 29°34' W 090°36'0 0.0
2018-Feb-13 07:25N 29°34' W 090°36'0 0.0
2018-Feb-13 07:00N 29°34' W 090°36'0 0.0
2018-Feb-13 06:19N 29°34' W 090°36'0 0.0
2018-Feb-13 06:00N 29°34' W 090°36'0 0.0
2018-Feb-13 05:28N 29°34' W 090°36'0 0.0
2018-Feb-13 05:00N 29°34' W 090°36'0 0.0
2018-Feb-13 04:30N 29°34' W 090°36'0 0.0
2018-Feb-13 04:00N 29°34' W 090°36'0 0.0
2018-Feb-13 03:30N 29°34' W 090°36'0 0.0
2018-Feb-13 03:00N 29°34' W 090°36'0 0.0
2018-Feb-13 02:29N 29°34' W 090°36'0 0.0
2018-Feb-13 02:00N 29°34' W 090°36'0 0.0
2018-Feb-13 01:25N 29°34' W 090°36'0 0.0
2018-Feb-13 01:00N 29°34' W 090°36'0 0.0
2018-Feb-13 00:30N 29°34' W 090°36'0 0.0
2018-Feb-13 00:00N 29°34' W 090°36'0 0.0
2018-Feb-12 23:29N 29°34' W 090°36'0 0.0
2018-Feb-12 22:59N 29°34' W 090°36'0 0.0
2018-Feb-12 22:30N 29°34' W 090°36'0 0.0
2018-Feb-12 21:56N 29°34' W 090°36'0 0.0
2018-Feb-12 21:28N 29°34' W 090°36'0 0.0
2018-Feb-12 21:00N 29°34' W 090°36'1 1.3
2018-Feb-12 20:29N 29°34' W 090°35'1 1.3
2018-Feb-12 20:00N 29°35' W 090°36'0 0.6
2018-Feb-12 19:30N 29°34' W 090°36'0 0.0
2018-Feb-12 19:00N 29°34' W 090°36'0 0.0
2018-Feb-12 18:27N 29°34' W 090°36'0 0.0
2018-Feb-12 18:00N 29°34' W 090°36'0 0.0
2018-Feb-12 17:30N 29°34' W 090°36'0 0.0
2018-Feb-12 17:00N 29°34' W 090°36'0 0.0
2018-Feb-12 16:30N 29°34' W 090°36'0 0.0
2018-Feb-12 16:00N 29°34' W 090°36'0 0.0
2018-Feb-12 15:30N 29°34' W 090°36'0 0.0
2018-Feb-12 14:48N 29°34' W 090°36'0 0.0
2018-Feb-12 14:12N 29°34' W 090°36'0 0.0
2018-Feb-12 13:56N 29°34' W 090°36'0 0.0
2018-Feb-12 13:29N 29°34' W 090°36'0 0.0
2018-Feb-12 13:00N 29°34' W 090°36'0 0.0
2018-Feb-12 12:30N 29°34' W 090°36'0 0.0
2018-Feb-12 12:00N 29°34' W 090°36'0 0.0
2018-Feb-12 11:30N 29°34' W 090°36'0 0.0
2018-Feb-12 11:00N 29°34' W 090°36'0 0.0
2018-Feb-12 10:28N 29°34' W 090°36'0 0.0
2018-Feb-12 09:59N 29°34' W 090°36'0 0.0
2018-Feb-12 09:30N 29°34' W 090°36'0 0.0
2018-Feb-12 08:58N 29°34' W 090°36'0 0.0
2018-Feb-12 08:27N 29°34' W 090°36'0 0.0
2018-Feb-12 07:54N 29°34' W 090°36'0 0.0
2018-Feb-12 07:30N 29°34' W 090°36'0 0.0
2018-Feb-12 06:58N 29°34' W 090°36'0 0.0
2018-Feb-12 06:29N 29°34' W 090°36'0 0.0
2018-Feb-12 05:53N 29°34' W 090°36'0 0.0
2018-Feb-12 05:29N 29°34' W 090°36'0 0.0
2018-Feb-12 04:59N 29°34' W 090°36'0 0.0
2018-Feb-12 04:30N 29°34' W 090°36'0 0.0
2018-Feb-12 04:00N 29°34' W 090°36'0 0.0
2018-Feb-12 03:29N 29°34' W 090°36'0 0.0
2018-Feb-12 03:00N 29°34' W 090°36'0 0.0
2018-Feb-12 02:30N 29°34' W 090°36'0 0.0
2018-Feb-12 02:00N 29°34' W 090°36'  
Track history (hours):
 
Tides and Currents Weather Stations Pressure Air Temp Water Temp Dewpoint Dewpoint Depression Visibility Wind Speed Wind Dir Waves Ship Positions

American Freedom

Owner: LeBeouf Bros. Towing, L.L.C., Houma, LA. More information available from US FCC via Universal Licensing System and Coast Guard Vessel Documentation Center.

Last reported at 2018-Feb-22 01:38 UTC. Time now 2018-Feb-22 07:23 UTC.
Position N 29°33' W 090°55'.

Length 24 m.

Type: Tug. MMSI: 367005260.

Date/timePositionNaut miles runAvg speedWind from/ knotsBaromVisibWave heightAir tempDewpointWater temp
2018-Feb-22 01:38N 29°33' W 090°55'1 8.3
2018-Feb-22 01:30N 29°33' W 090°53'4 7.5
2018-Feb-22 01:01N 29°32' W 090°49'4 7.5
2018-Feb-22 00:31N 29°33' W 090°45'2 4.9
2018-Feb-22 00:00N 29°35' W 090°43'2 4.4
2018-Feb-21 23:31N 29°37' W 090°42'0 1.0
2018-Feb-21 23:01N 29°36' W 090°41'0 0.0
2018-Feb-21 22:30N 29°36' W 090°41'0 0.0
2018-Feb-21 22:01N 29°36' W 090°41'0 0.0
2018-Feb-21 21:31N 29°36' W 090°41'2 4.0
2018-Feb-21 21:01N 29°36' W 090°39'3 6.0
2018-Feb-21 20:31N 29°35' W 090°36'0 0.3
2018-Feb-21 20:00N 29°35' W 090°36'0 0.1
2018-Feb-21 19:30N 29°35' W 090°36'0 0.2
2018-Feb-21 17:59N 29°35' W 090°36'0 0.5
2018-Feb-21 17:30N 29°34' W 090°36'0 0.0
2018-Feb-21 17:00N 29°34' W 090°36'0 0.6
2018-Feb-21 16:30N 29°35' W 090°36'0 0.2
2018-Feb-21 16:00N 29°35' W 090°36'1 1.1
2018-Feb-21 15:30N 29°35' W 090°36'0 0.5
2018-Feb-21 15:00N 29°35' W 090°36'0 0.3
2018-Feb-21 14:30N 29°35' W 090°36'1 1.0
2018-Feb-21 14:00N 29°35' W 090°36'0 0.5
2018-Feb-21 13:29N 29°34' W 090°36'0 0.0
2018-Feb-21 13:01N 29°34' W 090°36'0 0.0
2018-Feb-21 12:30N 29°34' W 090°36'0 0.0
2018-Feb-21 12:01N 29°34' W 090°36'0 0.0
2018-Feb-21 11:30N 29°34' W 090°36'0 0.0
2018-Feb-21 11:01N 29°34' W 090°36'0 0.0
2018-Feb-21 10:30N 29°34' W 090°36'0 0.0
2018-Feb-21 09:57N 29°34' W 090°36'0 0.0
2018-Feb-21 09:30N 29°34' W 090°36'0 0.0
2018-Feb-21 09:01N 29°34' W 090°36'0 0.0
2018-Feb-21 08:31N 29°34' W 090°36'0 0.0
2018-Feb-21 08:00N 29°34' W 090°36'0 0.0
2018-Feb-21 07:31N 29°34' W 090°36'0 0.0
2018-Feb-21 07:01N 29°34' W 090°36'0 0.0
2018-Feb-21 06:31N 29°34' W 090°36'0 0.0
2018-Feb-21 06:00N 29°34' W 090°36'0 0.0
2018-Feb-21 05:30N 29°34' W 090°36'0 0.0
2018-Feb-21 05:01N 29°34' W 090°36'0 0.0
2018-Feb-21 04:31N 29°34' W 090°36'0 0.0
2018-Feb-21 04:00N 29°34' W 090°36'0 0.0
2018-Feb-21 03:31N 29°34' W 090°36'0 0.0
2018-Feb-21 03:00N 29°34' W 090°36'0 0.0
2018-Feb-21 02:31N 29°34' W 090°36'0 0.0
2018-Feb-21 01:59N 29°34' W 090°36'0 0.0
2018-Feb-21 01:30N 29°34' W 090°36'0 0.0
2018-Feb-21 01:00N 29°34' W 090°36'0 0.0
2018-Feb-21 00:31N 29°34' W 090°36'0 0.0
2018-Feb-21 00:01N 29°34' W 090°36'0 0.0
2018-Feb-20 23:30N 29°34' W 090°36'0 0.0
2018-Feb-20 23:00N 29°34' W 090°36'0 0.0
2018-Feb-20 22:30N 29°34' W 090°36'0 0.0
2018-Feb-20 21:55N 29°34' W 090°36'0 0.0
2018-Feb-20 21:31N 29°34' W 090°36'0 0.0
2018-Feb-20 20:58N 29°34' W 090°36'0 0.0
2018-Feb-20 20:31N 29°34' W 090°36'0 0.0
2018-Feb-20 20:00N 29°34' W 090°36'0 0.0
2018-Feb-20 19:30N 29°34' W 090°36'0 0.0
2018-Feb-20 19:01N 29°34' W 090°36'0 0.0
2018-Feb-20 18:31N 29°34' W 090°36'0 0.0
2018-Feb-20 18:00N 29°34' W 090°36'0 0.0
2018-Feb-20 17:30N 29°34' W 090°36'0 0.0
2018-Feb-20 17:00N 29°34' W 090°36'0 0.0
2018-Feb-20 16:30N 29°34' W 090°36'0 0.0
2018-Feb-20 15:59N 29°34' W 090°36'0 0.0
2018-Feb-20 15:30N 29°34' W 090°36'0 0.0
2018-Feb-20 15:00N 29°34' W 090°36'0 0.0
2018-Feb-20 14:30N 29°34' W 090°36'0 0.0
2018-Feb-20 13:49N 29°34' W 090°36'0 0.0
2018-Feb-20 13:30N 29°34' W 090°36'0 0.0
2018-Feb-20 13:01N 29°34' W 090°36'0 0.0
2018-Feb-20 12:31N 29°34' W 090°36'0 0.0
2018-Feb-20 12:01N 29°34' W 090°36'0 0.0
2018-Feb-20 11:30N 29°34' W 090°36'0 0.0
2018-Feb-20 11:01N 29°34' W 090°36'0 0.0
2018-Feb-20 10:30N 29°34' W 090°36'0 0.0
2018-Feb-20 10:00N 29°34' W 090°36'0 0.0
2018-Feb-20 09:31N 29°34' W 090°36'0 0.0
2018-Feb-20 08:57N 29°34' W 090°36'0 0.0
2018-Feb-20 08:31N 29°34' W 090°36'0 0.0
2018-Feb-20 07:59N 29°34' W 090°36'0 0.0
2018-Feb-20 07:28N 29°34' W 090°36'0 0.0
2018-Feb-20 07:01N 29°34' W 090°36'0 0.0
2018-Feb-20 06:28N 29°34' W 090°36'0 0.0
2018-Feb-20 05:58N 29°34' W 090°36'0 0.0
2018-Feb-20 05:29N 29°34' W 090°36'0 0.0
2018-Feb-20 05:00N 29°34' W 090°36'0 0.0
2018-Feb-20 04:30N 29°34' W 090°36'0 0.0
2018-Feb-20 04:01N 29°34' W 090°36'0 0.0
2018-Feb-20 03:26N 29°34' W 090°36'0 0.0
2018-Feb-20 02:59N 29°34' W 090°36'0 0.0
2018-Feb-20 02:26N 29°34' W 090°36'0 0.0
2018-Feb-20 02:01N 29°34' W 090°36'0 0.0
2018-Feb-20 01:30N 29°34' W 090°36'0 0.0
2018-Feb-20 00:59N 29°34' W 090°36'0 0.0
2018-Feb-20 00:31N 29°34' W 090°36'0 0.0
2018-Feb-20 00:01N 29°34' W 090°36'0 0.0
2018-Feb-19 23:31N 29°34' W 090°36'0 0.0
2018-Feb-19 23:01N 29°34' W 090°36'0 0.0
2018-Feb-19 22:30N 29°34' W 090°36'0 0.0
2018-Feb-19 22:00N 29°34' W 090°36'0 0.0
2018-Feb-19 21:31N 29°34' W 090°36'0 0.0
2018-Feb-19 21:00N 29°34' W 090°36'0 0.0
2018-Feb-19 20:31N 29°34' W 090°36'0 0.0
2018-Feb-19 20:01N 29°34' W 090°36'0 0.0
2018-Feb-19 19:31N 29°34' W 090°36'0 0.0
2018-Feb-19 19:01N 29°34' W 090°36'0 0.0
2018-Feb-19 18:29N 29°34' W 090°36'0 0.0
2018-Feb-19 18:01N 29°34' W 090°36'0 0.0
2018-Feb-19 17:29N 29°34' W 090°36'0 0.0
2018-Feb-19 17:00N 29°34' W 090°36'0 0.0
2018-Feb-19 16:31N 29°34' W 090°36'0 0.0
2018-Feb-19 15:57N 29°34' W 090°36'0 0.0
2018-Feb-19 15:31N 29°34' W 090°36'0 0.0
2018-Feb-19 15:00N 29°34' W 090°36'0 0.0
2018-Feb-19 14:31N 29°34' W 090°36'0 0.0
2018-Feb-19 14:00N 29°34' W 090°36'0 0.0
2018-Feb-19 13:31N 29°34' W 090°36'0 0.0
2018-Feb-19 13:01N 29°34' W 090°36'0 0.0
2018-Feb-19 12:31N 29°34' W 090°36'0 0.0
2018-Feb-19 12:00N 29°34' W 090°36'0 0.0
2018-Feb-19 11:30N 29°34' W 090°36'0 0.0
2018-Feb-19 11:01N 29°34' W 090°36'0 0.0
2018-Feb-19 10:30N 29°34' W 090°36'0 0.0
2018-Feb-19 09:58N 29°34' W 090°36'0 0.0
2018-Feb-19 09:30N 29°34' W 090°36'0 0.0
2018-Feb-19 08:59N 29°34' W 090°36'0 0.0
2018-Feb-19 08:29N 29°34' W 090°36'0 0.0
2018-Feb-19 08:01N 29°34' W 090°36'0 0.0
2018-Feb-19 07:23N 29°34' W 090°36'0 0.0
2018-Feb-19 07:00N 29°34' W 090°36'0 0.0
2018-Feb-19 06:30N 29°34' W 090°36'0 0.0
2018-Feb-19 06:00N 29°34' W 090°36'0 0.0
2018-Feb-19 05:30N 29°34' W 090°36'0 0.0
2018-Feb-19 05:01N 29°34' W 090°36'0 0.0
2018-Feb-19 04:30N 29°34' W 090°36'0 0.0
2018-Feb-19 04:00N 29°34' W 090°36'0 0.0
2018-Feb-19 03:30N 29°34' W 090°36'0 0.0
2018-Feb-19 03:01N 29°34' W 090°36'0 0.0
2018-Feb-19 02:29N 29°34' W 090°36'0 0.0
2018-Feb-19 02:00N 29°34' W 090°36'0 0.0
2018-Feb-19 01:31N 29°34' W 090°36'0 0.0
2018-Feb-19 00:30N 29°34' W 090°36'0 0.0
2018-Feb-19 00:00N 29°34' W 090°36'0 0.0
2018-Feb-18 23:31N 29°34' W 090°36'0 0.0
2018-Feb-18 23:01N 29°34' W 090°36'0 0.0
2018-Feb-18 22:31N 29°34' W 090°36'0 0.0
2018-Feb-18 22:00N 29°34' W 090°36'0 0.0
2018-Feb-18 21:30N 29°34' W 090°36'0 0.0
2018-Feb-18 21:00N 29°34' W 090°36'0 0.0
2018-Feb-18 20:30N 29°34' W 090°36'0 0.0
2018-Feb-18 20:00N 29°34' W 090°36'0 0.0
2018-Feb-18 19:31N 29°34' W 090°36'0 0.0
2018-Feb-18 19:01N 29°34' W 090°36'0 0.0
2018-Feb-18 18:30N 29°34' W 090°36'0 0.0
2018-Feb-18 18:00N 29°34' W 090°36'0 0.0
2018-Feb-18 17:31N 29°34' W 090°36'0 0.0
2018-Feb-18 17:01N 29°34' W 090°36'0 0.0
2018-Feb-18 16:31N 29°34' W 090°36'0 0.0
2018-Feb-18 16:00N 29°34' W 090°36'0 0.0
2018-Feb-18 15:31N 29°34' W 090°36'0 0.0
2018-Feb-18 15:00N 29°34' W 090°36'0 0.0
2018-Feb-18 14:30N 29°34' W 090°36'0 0.0
2018-Feb-18 13:59N 29°34' W 090°36'0 0.0
2018-Feb-18 13:30N 29°34' W 090°36'0 0.0
2018-Feb-18 12:58N 29°34' W 090°36'0 0.0
2018-Feb-18 12:31N 29°34' W 090°36'0 0.0
2018-Feb-18 12:01N 29°34' W 090°36'0 0.0
2018-Feb-18 11:28N 29°34' W 090°36'0 0.0
2018-Feb-18 11:00N 29°34' W 090°36'0 0.0
2018-Feb-18 10:28N 29°34' W 090°36'0 0.0
2018-Feb-18 10:00N 29°34' W 090°36'0 0.0
2018-Feb-18 09:27N 29°34' W 090°36'0 0.0
2018-Feb-18 09:00N 29°34' W 090°36'0 0.0
2018-Feb-18 08:30N 29°34' W 090°36'0 0.0
2018-Feb-18 08:00N 29°34' W 090°36'0 0.0
2018-Feb-18 07:27N 29°34' W 090°36'0 0.0
2018-Feb-18 07:01N 29°34' W 090°36'0 0.0
2018-Feb-18 06:30N 29°34' W 090°36'0 0.0
2018-Feb-18 06:00N 29°34' W 090°36'0 0.0
2018-Feb-18 05:31N 29°34' W 090°36'0 0.0
2018-Feb-18 05:00N 29°34' W 090°36'0 0.0
2018-Feb-18 04:30N 29°34' W 090°36'0 0.0
2018-Feb-18 04:01N 29°34' W 090°36'0 0.0
2018-Feb-18 03:31N 29°34' W 090°36'0 0.0
2018-Feb-18 02:58N 29°34' W 090°36'0 0.0
2018-Feb-18 02:31N 29°34' W 090°36'0 0.0
2018-Feb-18 02:00N 29°34' W 090°36'0 0.0
2018-Feb-18 01:30N 29°34' W 090°36'0 0.0
2018-Feb-18 01:01N 29°34' W 090°36'0 0.0
2018-Feb-18 00:30N 29°34' W 090°36'0 0.0
2018-Feb-18 00:01N 29°34' W 090°36'0 0.0
2018-Feb-17 23:31N 29°34' W 090°36'0 0.0
2018-Feb-17 23:00N 29°34' W 090°36'0 0.0
2018-Feb-17 22:29N 29°34' W 090°36'0 0.0
2018-Feb-17 22:00N 29°34' W 090°36'0 0.0
2018-Feb-17 21:30N 29°34' W 090°36'0 0.0
2018-Feb-17 21:01N 29°34' W 090°36'0 0.0
2018-Feb-17 20:29N 29°34' W 090°36'0 0.0
2018-Feb-17 20:00N 29°34' W 090°36'0 0.0
2018-Feb-17 19:30N 29°34' W 090°36'0 0.0
2018-Feb-17 19:00N 29°34' W 090°36'0 0.0
2018-Feb-17 18:28N 29°34' W 090°36'0 0.0
2018-Feb-17 18:00N 29°34' W 090°36'0 0.0
2018-Feb-17 17:30N 29°34' W 090°36'0 0.0
2018-Feb-17 17:01N 29°34' W 090°36'0 0.0
2018-Feb-17 16:31N 29°34' W 090°36'0 0.0
2018-Feb-17 16:01N 29°34' W 090°36'0 0.0
2018-Feb-17 15:30N 29°34' W 090°36'0 0.0
2018-Feb-17 14:59N 29°34' W 090°36'0 0.0
2018-Feb-17 14:30N 29°34' W 090°36'0 0.0
2018-Feb-17 13:53N 29°34' W 090°36'0 0.0
2018-Feb-17 13:31N 29°34' W 090°36'0 0.0
2018-Feb-17 13:01N 29°34' W 090°36'0 0.0
2018-Feb-17 12:30N 29°34' W 090°36'0 0.0
2018-Feb-17 12:01N 29°34' W 090°36'0 0.0
2018-Feb-17 11:30N 29°34' W 090°36'0 0.0
2018-Feb-17 10:57N 29°34' W 090°36'0 0.0
2018-Feb-17 10:30N 29°34' W 090°36'0 0.0
2018-Feb-17 10:01N 29°34' W 090°36'0 0.0
2018-Feb-17 09:30N 29°34' W 090°36'0 0.0
2018-Feb-17 09:00N 29°34' W 090°36'0 0.0
2018-Feb-17 08:31N 29°34' W 090°36'0 0.0
2018-Feb-17 08:01N 29°34' W 090°36'0 0.0
2018-Feb-17 07:31N 29°34' W 090°36'0 0.0
2018-Feb-17 07:01N 29°34' W 090°36'0 0.0
2018-Feb-17 06:31N 29°34' W 090°36'0 0.0
2018-Feb-17 06:00N 29°34' W 090°36'0 0.0
2018-Feb-17 05:31N 29°34' W 090°36'0 0.0
2018-Feb-17 05:01N 29°34' W 090°36'0 0.0
2018-Feb-17 04:30N 29°34' W 090°36'0 0.0
2018-Feb-17 04:00N 29°34' W 090°36'0 0.0
2018-Feb-17 03:31N 29°34' W 090°36'0 0.0
2018-Feb-17 03:01N 29°34' W 090°36'0 0.0
2018-Feb-17 02:31N 29°34' W 090°36'0 0.0
2018-Feb-17 01:59N 29°34' W 090°36'0 0.0
2018-Feb-17 01:31N 29°34' W 090°36'0 0.0
2018-Feb-17 01:00N 29°34' W 090°36'0 0.0
2018-Feb-17 00:30N 29°34' W 090°36'0 0.0
2018-Feb-16 23:59N 29°34' W 090°36'0 0.0
2018-Feb-16 23:31N 29°34' W 090°36'0 0.0
2018-Feb-16 23:00N 29°34' W 090°36'0 0.0
2018-Feb-16 22:31N 29°34' W 090°36'0 0.0
2018-Feb-16 22:00N 29°34' W 090°36'0 0.0
2018-Feb-16 21:30N 29°34' W 090°36'0 0.0
2018-Feb-16 21:00N 29°34' W 090°36'0 0.0
2018-Feb-16 20:28N 29°34' W 090°36'0 0.7
2018-Feb-16 20:00N 29°35' W 090°35'0 0.6
2018-Feb-16 19:30N 29°34' W 090°36'0 0.0
2018-Feb-16 19:00N 29°34' W 090°36'0 0.0
2018-Feb-16 18:30N 29°34' W 090°36'0 0.0
2018-Feb-16 18:00N 29°34' W 090°36'0 0.0
2018-Feb-16 17:30N 29°34' W 090°36'0 0.0
2018-Feb-16 17:00N 29°34' W 090°36'0 0.0
2018-Feb-16 16:31N 29°34' W 090°36'0 0.0
2018-Feb-16 16:00N 29°34' W 090°36'0 0.0
2018-Feb-16 15:30N 29°34' W 090°36'0 0.0
2018-Feb-16 15:00N 29°34' W 090°36'0 0.0
2018-Feb-16 14:29N 29°34' W 090°36'0 0.0
2018-Feb-16 13:59N 29°34' W 090°36'0 0.0
2018-Feb-16 13:31N 29°34' W 090°36'0 0.0
2018-Feb-16 13:01N 29°34' W 090°36'0 0.0
2018-Feb-16 12:31N 29°34' W 090°36'0 0.0
2018-Feb-16 12:01N 29°34' W 090°36'0 0.0
2018-Feb-16 11:30N 29°34' W 090°36'0 0.0
2018-Feb-16 11:01N 29°34' W 090°36'0 0.0
2018-Feb-16 10:30N 29°34' W 090°36'0 0.0
2018-Feb-16 10:00N 29°34' W 090°36'0 0.0
2018-Feb-16 09:30N 29°34' W 090°36'0 0.0
2018-Feb-16 09:01N 29°34' W 090°36'0 0.0
2018-Feb-16 08:28N 29°34' W 090°36'0 0.0
2018-Feb-16 08:00N 29°34' W 090°36'0 0.0
2018-Feb-16 07:30N 29°34' W 090°36'0 0.0
2018-Feb-16 07:01N 29°34' W 090°36'0 0.0
2018-Feb-16 06:28N 29°34' W 090°36'0 0.0
2018-Feb-16 06:00N 29°34' W 090°36'0 0.0
2018-Feb-16 05:29N 29°34' W 090°36'0 0.0
2018-Feb-16 04:59N 29°34' W 090°36'0 0.0
2018-Feb-16 04:24N 29°34' W 090°36'0 0.0
2018-Feb-16 04:01N 29°34' W 090°36'0 0.0
2018-Feb-16 03:30N 29°34' W 090°36'0 0.0
2018-Feb-16 03:01N 29°34' W 090°36'0 0.0
2018-Feb-16 02:31N 29°34' W 090°36'0 0.0
2018-Feb-16 02:00N 29°34' W 090°36'0 0.0
2018-Feb-16 01:30N 29°34' W 090°36'0 0.0
2018-Feb-16 01:00N 29°34' W 090°36'0 0.0
2018-Feb-16 00:30N 29°34' W 090°36'0 0.0
2018-Feb-16 00:01N 29°34' W 090°36'0 0.0
2018-Feb-15 23:30N 29°34' W 090°36'0 0.0
2018-Feb-15 22:58N 29°34' W 090°36'0 0.0
2018-Feb-15 22:31N 29°34' W 090°36'0 0.0
2018-Feb-15 21:59N 29°34' W 090°36'0 0.0
2018-Feb-15 21:31N 29°34' W 090°36'0 0.0
2018-Feb-15 21:01N 29°34' W 090°36'0 0.0
2018-Feb-15 20:31N 29°34' W 090°36'0 0.0
2018-Feb-15 19:58N 29°34' W 090°36'0 0.0
2018-Feb-15 19:30N 29°34' W 090°36'0 0.0
2018-Feb-15 19:01N 29°34' W 090°36'0 0.0
2018-Feb-15 18:31N 29°34' W 090°36'0 0.0
2018-Feb-15 18:01N 29°34' W 090°36'0 0.0
2018-Feb-15 17:31N 29°34' W 090°36'0 0.0
2018-Feb-15 17:00N 29°34' W 090°36'0 0.0
2018-Feb-15 16:30N 29°34' W 090°36'0 0.0
2018-Feb-15 16:00N 29°34' W 090°36'0 0.0
2018-Feb-15 15:29N 29°34' W 090°36'0 0.0
2018-Feb-15 15:00N 29°34' W 090°36'0 0.0
2018-Feb-15 14:30N 29°34' W 090°36'0 0.0
2018-Feb-15 13:58N 29°34' W 090°36'0 0.0
2018-Feb-15 13:30N 29°34' W 090°36'0 0.0
2018-Feb-15 12:58N 29°34' W 090°36'0 0.0
2018-Feb-15 12:30N 29°34' W 090°36'0 0.0
2018-Feb-15 12:00N 29°34' W 090°36'0 0.0
2018-Feb-15 11:30N 29°34' W 090°36'0 0.0
2018-Feb-15 11:00N 29°34' W 090°36'0 0.0
2018-Feb-15 10:30N 29°34' W 090°36'0 0.0
2018-Feb-15 09:59N 29°34' W 090°36'0 0.0
2018-Feb-15 09:30N 29°34' W 090°36'0 0.0
2018-Feb-15 09:00N 29°34' W 090°36'0 0.0
2018-Feb-15 08:30N 29°34' W 090°36'0 0.0
2018-Feb-15 08:00N 29°34' W 090°36'0 0.0
2018-Feb-15 07:30N 29°34' W 090°36'0 0.0
2018-Feb-15 07:00N 29°34' W 090°36'0 0.0
2018-Feb-15 06:30N 29°34' W 090°36'0 0.0
2018-Feb-15 06:00N 29°34' W 090°36'0 0.0
2018-Feb-15 05:30N 29°34' W 090°36'0 0.0
2018-Feb-15 05:00N 29°34' W 090°36'0 0.0
2018-Feb-15 04:30N 29°34' W 090°36'0 0.0
2018-Feb-15 04:00N 29°34' W 090°36'0 0.0
2018-Feb-15 03:30N 29°34' W 090°36'0 0.0
2018-Feb-15 03:00N 29°34' W 090°36'0 0.0
2018-Feb-15 02:30N 29°34' W 090°36'0 0.0
2018-Feb-15 02:00N 29°34' W 090°36'0 0.0
2018-Feb-15 01:27N 29°34' W 090°36'0 0.0
2018-Feb-15 01:00N 29°34' W 090°36'0 0.0
2018-Feb-15 00:23N 29°34' W 090°36'0 0.0
2018-Feb-15 00:00N 29°34' W 090°36'0 0.0
2018-Feb-14 23:30N 29°34' W 090°36'0 0.0
2018-Feb-14 23:00N 29°34' W 090°36'0 0.0
2018-Feb-14 22:30N 29°34' W 090°36'0 0.0
2018-Feb-14 22:00N 29°34' W 090°36'0 0.0
2018-Feb-14 21:30N 29°34' W 090°36'0 0.0
2018-Feb-14 20:59N 29°34' W 090°36'0 0.0
2018-Feb-14 20:30N 29°34' W 090°36'0 0.0
2018-Feb-14 19:59N 29°34' W 090°36'0 0.0
2018-Feb-14 19:29N 29°34' W 090°36'0 0.0
2018-Feb-14 18:59N 29°34' W 090°36'0 0.0
2018-Feb-14 18:30N 29°34' W 090°36'0 0.0
2018-Feb-14 18:00N 29°34' W 090°36'0 0.0
2018-Feb-14 17:30N 29°34' W 090°36'0 0.0
2018-Feb-14 17:00N 29°34' W 090°36'0 0.0
2018-Feb-14 16:30N 29°34' W 090°36'0 0.0
2018-Feb-14 15:59N 29°34' W 090°36'0 0.0
2018-Feb-14 15:30N 29°34' W 090°36'0 0.0
2018-Feb-14 15:00N 29°34' W 090°36'0 0.0
2018-Feb-14 13:31N 29°34' W 090°36'0 0.0
2018-Feb-14 13:24N 29°34' W 090°36'0 0.0
2018-Feb-14 13:00N 29°34' W 090°36'0 0.0
2018-Feb-14 12:30N 29°34' W 090°36'0 0.0
2018-Feb-14 12:00N 29°34' W 090°36'0 0.0
2018-Feb-14 11:30N 29°34' W 090°36'0 0.0
2018-Feb-14 11:00N 29°34' W 090°36'0 0.0
2018-Feb-14 10:30N 29°34' W 090°36'0 0.0
2018-Feb-14 09:58N 29°34' W 090°36'0 0.0
2018-Feb-14 09:29N 29°34' W 090°36'0 0.0
2018-Feb-14 08:54N 29°34' W 090°36'0 0.0
2018-Feb-14 08:30N 29°34' W 090°36'0 0.0
2018-Feb-14 07:59N 29°34' W 090°36'0 0.0
2018-Feb-14 07:30N 29°34' W 090°36'0 0.0
2018-Feb-14 07:00N 29°34' W 090°36'0 0.0
2018-Feb-14 06:30N 29°34' W 090°36'0 0.0
2018-Feb-14 05:54N 29°34' W 090°36'0 0.0
2018-Feb-14 05:30N 29°34' W 090°36'0 0.0
2018-Feb-14 05:00N 29°34' W 090°36'0 0.0
2018-Feb-14 04:29N 29°34' W 090°36'0 0.0
2018-Feb-14 03:57N 29°34' W 090°36'0 0.0
2018-Feb-14 03:30N 29°34' W 090°36'0 0.0
2018-Feb-14 03:00N 29°34' W 090°36'0 0.0
2018-Feb-14 02:30N 29°34' W 090°36'0 0.0
2018-Feb-14 01:59N 29°34' W 090°36'0 0.0
2018-Feb-14 01:30N 29°34' W 090°36'0 0.0
2018-Feb-14 01:00N 29°34' W 090°36'0 0.0
2018-Feb-14 00:25N 29°34' W 090°36'0 0.0
2018-Feb-14 00:00N 29°34' W 090°36'0 0.0
2018-Feb-13 23:30N 29°34' W 090°36'0 0.0
2018-Feb-13 23:00N 29°34' W 090°36'0 0.0
2018-Feb-13 22:30N 29°34' W 090°36'0 0.0
2018-Feb-13 22:00N 29°34' W 090°36'0 0.0
2018-Feb-13 21:30N 29°34' W 090°36'0 0.0
2018-Feb-13 21:00N 29°34' W 090°36'0 0.0
2018-Feb-13 20:30N 29°34' W 090°36'0 0.0
2018-Feb-13 20:00N 29°34' W 090°36'0 0.0
2018-Feb-13 19:29N 29°34' W 090°36'0 0.0
2018-Feb-13 19:00N 29°34' W 090°36'0 0.0
2018-Feb-13 18:30N 29°34' W 090°36'0 0.0
2018-Feb-13 17:58N 29°34' W 090°36'0 0.0
2018-Feb-13 17:30N 29°34' W 090°36'0 0.0
2018-Feb-13 17:00N 29°34' W 090°36'0 0.0
2018-Feb-13 16:30N 29°34' W 090°36'0 0.0
2018-Feb-13 16:00N 29°34' W 090°36'0 0.0
2018-Feb-13 15:29N 29°34' W 090°36'0 0.0
2018-Feb-13 15:00N 29°34' W 090°36'0 0.0
2018-Feb-13 14:29N 29°34' W 090°36'0 0.0
2018-Feb-13 13:39N 29°34' W 090°36'0 0.0
2018-Feb-13 13:30N 29°34' W 090°36'0 0.0
2018-Feb-13 13:00N 29°34' W 090°36'0 0.0
2018-Feb-13 12:30N 29°34' W 090°36'0 0.0
2018-Feb-13 12:00N 29°34' W 090°36'0 0.0
2018-Feb-13 11:29N 29°34' W 090°36'0 0.0
2018-Feb-13 10:55N 29°34' W 090°36'0 0.0
2018-Feb-13 10:30N 29°34' W 090°36'0 0.0
2018-Feb-13 10:00N 29°34' W 090°36'0 0.0
2018-Feb-13 09:30N 29°34' W 090°36'0 0.0
2018-Feb-13 08:58N 29°34' W 090°36'0 0.0
2018-Feb-13 08:27N 29°34' W 090°36'0 0.0
2018-Feb-13 07:55N 29°34' W 090°36'0 0.0
2018-Feb-13 07:25N 29°34' W 090°36'0 0.0
2018-Feb-13 07:00N 29°34' W 090°36'0 0.0
2018-Feb-13 06:19N 29°34' W 090°36'0 0.0
2018-Feb-13 06:00N 29°34' W 090°36'0 0.0
2018-Feb-13 05:28N 29°34' W 090°36'0 0.0
2018-Feb-13 05:00N 29°34' W 090°36'0 0.0
2018-Feb-13 04:30N 29°34' W 090°36'0 0.0
2018-Feb-13 04:00N 29°34' W 090°36'0 0.0
2018-Feb-13 03:30N 29°34' W 090°36'0 0.0
2018-Feb-13 03:00N 29°34' W 090°36'0 0.0
2018-Feb-13 02:29N 29°34' W 090°36'0 0.0
2018-Feb-13 02:00N 29°34' W 090°36'0 0.0
2018-Feb-13 01:25N 29°34' W 090°36'0 0.0
2018-Feb-13 01:00N 29°34' W 090°36'0 0.0
2018-Feb-13 00:30N 29°34' W 090°36'0 0.0
2018-Feb-13 00:00N 29°34' W 090°36'0 0.0
2018-Feb-12 23:29N 29°34' W 090°36'0 0.0
2018-Feb-12 22:59N 29°34' W 090°36'0 0.0
2018-Feb-12 22:30N 29°34' W 090°36'0 0.0
2018-Feb-12 21:56N 29°34' W 090°36'0 0.0
2018-Feb-12 21:28N 29°34' W 090°36'0 0.0
2018-Feb-12 21:00N 29°34' W 090°36'1 1.3
2018-Feb-12 20:29N 29°34' W 090°35'1 1.3
2018-Feb-12 20:00N 29°35' W 090°36'0 0.6
2018-Feb-12 19:30N 29°34' W 090°36'0 0.0
2018-Feb-12 19:00N 29°34' W 090°36'0 0.0
2018-Feb-12 18:27N 29°34' W 090°36'0 0.0
2018-Feb-12 18:00N 29°34' W 090°36'0 0.0
2018-Feb-12 17:30N 29°34' W 090°36'0 0.0
2018-Feb-12 17:00N 29°34' W 090°36'0 0.0
2018-Feb-12 16:30N 29°34' W 090°36'0 0.0
2018-Feb-12 16:00N 29°34' W 090°36'0 0.0
2018-Feb-12 15:30N 29°34' W 090°36'0 0.0
2018-Feb-12 14:48N 29°34' W 090°36'0 0.0
2018-Feb-12 14:12N 29°34' W 090°36'0 0.0
2018-Feb-12 13:56N 29°34' W 090°36'0 0.0
2018-Feb-12 13:29N 29°34' W 090°36'0 0.0
2018-Feb-12 13:00N 29°34' W 090°36'0 0.0
2018-Feb-12 12:30N 29°34' W 090°36'0 0.0
2018-Feb-12 12:00N 29°34' W 090°36'0 0.0
2018-Feb-12 11:30N 29°34' W 090°36'0 0.0
2018-Feb-12 11:00N 29°34' W 090°36'0 0.0
2018-Feb-12 10:28N 29°34' W 090°36'0 0.0
2018-Feb-12 09:59N 29°34' W 090°36'0 0.0
2018-Feb-12 09:30N 29°34' W 090°36'0 0.0
2018-Feb-12 08:58N 29°34' W 090°36'0 0.0
2018-Feb-12 08:27N 29°34' W 090°36'0 0.0
2018-Feb-12 07:54N 29°34' W 090°36'0 0.0
2018-Feb-12 07:30N 29°34' W 090°36'0 0.0
2018-Feb-12 06:58N 29°34' W 090°36'0 0.0
2018-Feb-12 06:29N 29°34' W 090°36'0 0.0
2018-Feb-12 05:53N 29°34' W 090°36'0 0.0
2018-Feb-12 05:29N 29°34' W 090°36'0 0.0
2018-Feb-12 04:59N 29°34' W 090°36'0 0.0
2018-Feb-12 04:30N 29°34' W 090°36'0 0.0
2018-Feb-12 04:00N 29°34' W 090°36'0 0.0
2018-Feb-12 03:29N 29°34' W 090°36'0 0.0
2018-Feb-12 03:00N 29°34' W 090°36'0 0.0
2018-Feb-12 02:30N 29°34' W 090°36'0 0.0
2018-Feb-12 02:00N 29°34' W 090°36'  

Dump ship's entire track history